Time;durP1;ratioP1;P1;durP2;ratioP2;P2;SDS_P1;SDS_P2;PMS_P1;PMS_P2;Temp;Humidity;BMP_temperature;BMP_pressure;BME280_temperature;BME280_humidity;BME280_pressure;Samples;Min_cycle;Max_cycle;Signal;HPM_P1;HPM_P2
2021/05/18 00:01:09;;;;;;;;;;;13.80;99.90;;;13.44;97.42;101249.03;5032529;28;19932;-64
2021/05/18 00:03:38;;;;;;;;;;;13.90;99.90;;;13.40;96.47;101250.75;5032113;28;19925;-64
2021/05/18 00:06:06;;;;;;;;;;;13.90;99.90;;;13.38;96.25;101249.41;5031592;28;19925;-64
2021/05/18 00:11:42;;;;;;;;;;;13.80;99.90;;;13.32;96.02;101240.53;5032371;28;19929;-64
2021/05/18 00:14:06;;;;;;;;;;;13.80;99.90;;;13.40;97.65;101239.06;5032456;28;19978;-64
2021/05/18 00:16:33;;;;;;;;;;;13.80;99.90;;;13.43;97.47;101235.75;5031537;28;19933;-64
2021/05/18 00:19:01;;;;;;;;;;;13.80;99.90;;;13.41;97.09;101240.66;5032088;28;19948;-64
2021/05/18 00:21:28;;;;;;;;;;;13.80;99.90;;;13.33;96.87;101230.50;5032299;28;19932;-63
2021/05/18 00:23:56;;;;;;;;;;;13.80;99.90;;;13.29;97.90;101224.03;5032511;28;20378;-64
2021/05/18 00:26:23;;;;;;;;;;;13.70;99.90;;;13.32;99.47;101218.81;5031253;28;19932;-64
2021/05/18 00:28:50;;;;;;;;;;;13.80;99.90;;;13.44;99.80;101223.75;5032332;28;20345;-64
2021/05/18 00:31:18;;;;;;;;;;;13.90;99.90;;;13.50;99.70;101226.09;5031895;28;20307;-63
2021/05/18 00:33:45;;;;;;;;;;;13.90;99.90;;;13.52;98.90;101210.31;5032276;28;19925;-64
2021/05/18 00:36:13;;;;;;;;;;;14.00;99.90;;;13.54;98.92;101212.72;5031505;28;20286;-64
2021/05/18 00:38:41;;;;;;;;;;;14.00;99.90;;;13.56;98.96;101199.63;5031928;28;19925;-64
2021/05/18 00:41:09;;;;;;;;;;;14.00;99.90;;;13.69;99.27;101207.81;5031827;28;19925;-63
2021/05/18 00:43:38;;;;;;;;;;;14.10;99.90;;;13.83;97.64;101204.31;5032085;28;19925;-64
2021/05/18 00:46:05;;;;;;;;;;;14.20;99.90;;;13.85;96.19;101205.63;5031284;28;19932;-64
2021/05/18 00:48:32;;;;;;;;;;;14.20;99.90;;;13.67;96.17;101199.16;5032061;28;19929;-64
2021/05/18 00:51:01;;;;;;;;;;;;;;;13.41;95.55;101189.88;5031778;28;19925;-64
2021/05/18 00:53:29;;;;;;;;;;;13.90;99.90;;;13.25;95.08;101198.59;5032152;28;19926;-64
2021/05/18 00:55:59;;;;;;;;;;;13.70;99.90;;;13.17;95.92;101196.53;5031397;28;19980;-63
2021/05/18 00:58:33;;;;;;;;;;;13.60;99.90;;;13.11;95.79;101195.81;5031898;28;20280;-63
2021/05/18 01:01:04;;;;;;;;;;;13.60;99.90;;;13.13;96.17;101183.56;5031552;28;19925;-64
2021/05/18 01:03:33;;;;;;;;;;;13.60;99.90;;;13.12;96.22;101189.31;5032166;28;19929;-64
2021/05/18 01:06:21;;;;;;;;;;;13.50;99.90;;;13.10;96.29;101184.16;5031205;28;20420;-64
2021/05/18 01:08:51;;;;;;;;;;;13.50;99.90;;;13.17;97.24;101182.97;5031817;28;19987;-63
2021/05/18 01:11:22;;;;;;;;;;;13.60;99.90;;;13.17;97.43;101180.25;5031504;28;19932;-63
2021/05/18 01:13:49;;;;;;;;;;;13.60;99.90;;;13.23;97.64;101168.19;5032016;28;19932;-62
2021/05/18 01:16:16;;;;;;;;;;;13.60;99.90;;;13.25;97.56;101166.81;5034510;28;19940;-63
2021/05/18 01:18:45;;;;;;;;;;;13.70;99.90;;;13.24;97.17;101169.81;5035815;28;19929;-63
2021/05/18 01:21:13;;;;;;;;;;;13.70;99.90;;;13.27;97.48;101171.94;5035274;28;19975;-63
2021/05/18 01:23:41;;;;;;;;;;;13.70;99.90;;;13.34;97.96;101166.94;5035660;28;19925;-63
2021/05/18 01:26:09;;;;;;;;;;;13.70;99.90;;;13.39;96.79;101172.25;5034779;28;19925;-63
2021/05/18 01:28:37;;;;;;;;;;;13.80;99.90;;;13.35;97.11;101166.63;5035470;28;19925;-63
2021/05/18 01:31:06;;;;;;;;;;;13.80;99.90;;;13.24;96.52;101167.09;5035124;28;19925;-63
2021/05/18 01:33:34;;;;;;;;;;;13.70;99.90;;;13.14;97.36;101171.59;5035369;28;19929;-63
2021/05/18 01:36:07;;;;;;;;;;;13.60;99.90;;;13.11;97.95;101153.19;5034702;28;19929;-63
2021/05/18 01:38:39;;;;;;;;;;;13.60;99.90;;;13.14;98.09;101155.31;5035483;28;20349;-63
2021/05/18 01:43:53;;;;;;;;;;;13.60;99.90;;;13.19;98.21;101151.72;5035369;28;19948;-62
2021/05/18 01:46:21;;;;;;;;;;;13.70;99.90;;;13.19;97.67;101146.28;5034301;28;20035;-63
2021/05/18 01:48:57;;;;;;;;;;;13.60;99.90;;;13.17;97.76;101139.50;5035096;28;19925;-62
2021/05/18 01:51:26;;;;;;;;;;;13.60;99.90;;;13.14;97.80;101139.03;5034702;28;20363;-63
2021/05/18 01:53:56;;;;;;;;;;;13.60;99.90;;;13.11;97.84;101138.81;5035131;28;19935;-63
2021/05/18 01:56:38;;;;;;;;;;;13.60;99.90;;;13.12;98.18;101133.09;5034205;28;19925;-63
2021/05/18 01:59:06;;;;;;;;;;;13.60;99.90;;;13.09;97.60;101125.53;5034798;28;20071;-63
2021/05/18 02:01:34;;;;;;;;;;;13.60;99.90;;;13.05;97.62;101129.91;5034665;28;19938;-63
2021/05/18 02:04:01;;;;;;;;;;;13.50;99.90;;;13.06;97.66;101128.03;5034965;28;19948;-62
2021/05/18 02:06:29;;;;;;;;;;;13.50;99.90;;;13.06;97.03;101130.72;5034102;28;19925;-63
2021/05/18 02:08:58;;;;;;;;;;;13.50;99.90;;;13.06;97.22;101126.13;5034625;28;20303;-63
2021/05/18 02:11:26;;;;;;;;;;;13.50;99.90;;;12.99;96.77;101131.13;5034235;28;20345;-63
2021/05/18 02:13:57;;;;;;;;;;;13.50;99.90;;;12.92;97.29;101119.81;5034710;28;19929;-63
2021/05/18 02:16:28;;;;;;;;;;;13.40;99.90;;;12.83;96.57;101135.19;5033831;28;19925;-63
2021/05/18 02:24:43;;;;;;;;;;;13.30;99.90;;;12.69;96.90;101134.34;5032693;28;19925;-63
2021/05/18 02:27:10;;;;;;;;;;;13.20;99.90;;;12.68;97.25;101140.84;5032813;28;19979;-63
2021/05/18 02:29:37;;;;;;;;;;;13.10;99.90;;;12.69;96.72;101141.66;5034257;28;20895;-63
2021/05/18 02:32:05;;;;;;;;;;;13.20;99.90;;;12.67;96.58;101131.13;5034038;28;19932;-63
2021/05/18 02:34:33;;;;;;;;;;;13.10;99.90;;;12.64;96.32;101129.00;5034350;28;19936;-62
2021/05/18 02:37:03;;;;;;;;;;;13.10;99.90;;;12.62;96.23;101131.19;5033480;28;19971;-63
2021/05/18 02:39:32;;;;;;;;;;;13.10;99.90;;;12.52;95.81;101125.94;5034167;28;19925;-63
2021/05/18 02:41:59;;;;;;;;;;;13.00;99.90;;;12.44;95.90;101126.59;5033853;28;19925;-63
2021/05/18 02:44:31;;;;;;;;;;;13.00;99.90;;;12.46;96.02;101130.63;5034066;28;19979;-62
2021/05/18 02:49:43;;;;;;;;;;;12.90;99.90;;;12.38;96.19;101136.72;5033941;28;20397;-62
2021/05/18 02:52:10;;;;;;;;;;;12.90;99.90;;;12.32;95.75;101135.19;5033891;28;19925;-64
2021/05/18 02:54:57;;;;;;;;;;;12.80;99.90;;;12.28;95.86;101133.34;5033809;28;20378;-63
2021/05/18 02:57:33;;;;;;;;;;;12.80;99.90;;;12.30;95.74;101126.53;5033044;28;19925;-63
2021/05/18 03:00:01;;;;;;;;;;;12.80;99.90;;;12.36;95.38;101130.78;5033608;28;19929;-62
2021/05/18 03:02:29;;;;;;;;;;;12.80;99.90;;;12.46;95.27;101137.97;5033783;28;19929;-63
2021/05/18 03:04:56;;;;;;;;;;;12.90;99.90;;;12.69;94.55;101130.81;5033690;28;19925;-62
2021/05/18 03:07:23;;;;;;;;;;;13.00;99.90;;;12.75;92.56;101140.47;5032929;28;20349;-64
2021/05/18 03:09:50;;;;;;;;;;;13.10;99.90;;;12.63;92.20;101132.81;5033462;28;20309;-65
2021/05/18 03:12:18;;;;;;;;;;;13.10;99.90;;;12.52;92.53;101136.78;5033416;28;19979;-64
2021/05/18 03:14:46;;;;;;;;;;;13.00;99.90;;;12.46;92.64;101127.91;5033565;28;20367;-64
2021/05/18 03:17:13;;;;;;;;;;;12.90;99.90;;;12.45;92.13;101118.19;5032751;28;19936;-64
2021/05/18 03:19:41;;;;;;;;;;;12.90;99.90;;;12.43;92.22;101130.41;5033205;28;19979;-64
2021/05/18 03:22:08;;;;;;;;;;;12.90;99.90;;;12.41;91.92;101122.56;5033325;28;19932;-64
2021/05/18 03:24:35;;;;;;;;;;;12.90;99.90;;;12.44;91.51;101121.97;5033291;28;20042;-64
2021/05/18 03:27:02;;;;;;;;;;;12.90;99.90;;;12.47;91.46;101123.28;5032476;28;19925;-62
2021/05/18 03:29:32;;;;;;;;;;;12.90;99.90;;;12.55;91.28;101117.22;5033222;28;19977;-65
2021/05/18 03:34:45;;;;;;;;;;;13.10;99.90;;;12.66;89.42;101125.97;5032996;28;19932;-62
2021/05/18 03:37:17;;;;;;;;;;;13.10;99.90;;;12.68;89.53;101134.63;5032445;28;19924;-63
2021/05/18 03:39:46;;;;;;;;;;;13.10;99.90;;;12.69;89.48;101137.06;5032194;28;19929;-63
2021/05/18 03:42:16;;;;;;;;;;;13.20;99.90;;;12.73;90.17;101146.22;5032947;28;20024;-63
2021/05/18 03:45:00;;;;;;;;;;;13.20;99.90;;;12.79;89.91;101147.75;5032545;28;20024;-63
2021/05/18 03:53:10;;;;;;;;;;;13.30;99.90;;;12.66;91.42;101147.69;5032860;28;19943;-63
2021/05/18 03:58:38;;;;;;;;;;;13.20;99.90;;;12.68;91.87;101146.28;5032644;28;19932;-63
2021/05/18 04:03:58;;;;;;;;;;;13.10;99.90;;;12.60;92.73;101138.81;5032575;28;19936;-63
2021/05/18 04:17:37;;;;;;;;;;;13.20;99.90;;;12.74;94.30;101149.72;5031952;28;19940;-64
2021/05/18 04:20:17;;;;;;;;;;;13.20;99.90;;;12.74;94.40;101155.16;5032186;28;19925;-64
2021/05/18 04:23:04;;;;;;;;;;;13.30;99.90;;;12.76;94.29;101151.06;5032512;28;19929;-63
2021/05/18 04:39:26;;;;;;;;;;;13.30;99.90;;;12.89;95.54;101153.00;5032324;28;20394;-63
2021/05/18 04:50:27;;;;;;;;;;;13.30;99.90;;;12.67;93.15;101166.41;5033797;28;19932;-62
2021/05/18 04:53:03;;;;;;;;;;;13.20;99.90;;;12.40;94.60;101168.97;5036261;28;19925;-63
2021/05/18 05:01:00;;;;;;;;;;;12.70;99.90;;;12.08;94.88;101183.22;5035765;28;19932;-63
2021/05/18 05:03:51;;;;;;;;;;;12.60;99.90;;;12.07;94.67;101181.59;5036186;28;19926;-63
2021/05/18 05:06:24;;;;;;;;;;;12.60;99.90;;;12.07;94.10;101193.25;5034934;28;20030;-63
2021/05/18 05:08:57;;;;;;;;;;;12.60;99.90;;;12.05;93.80;101202.78;5036037;28;20024;-63
2021/05/18 05:14:27;;;;;;;;;;;12.50;99.90;;;11.92;93.62;101203.47;5035846;28;20413;-63
2021/05/18 05:16:55;;;;;;;;;;;12.40;99.90;;;11.81;93.75;101205.50;5034947;28;20019;-62
2021/05/18 05:19:26;;;;;;;;;;;12.30;99.90;;;11.73;93.66;101208.03;5035654;28;19929;-63
2021/05/18 05:21:55;;;;;;;;;;;12.30;99.90;;;11.65;93.45;101214.03;5035621;28;19933;-63
2021/05/18 05:24:22;;;;;;;;;;;;;;;11.59;93.13;101209.78;5035595;28;19929;-63
2021/05/18 05:26:50;;;;;;;;;;;12.00;99.90;;;11.62;92.50;101210.00;5034608;28;19925;-63
2021/05/18 05:29:18;;;;;;;;;;;12.10;99.90;;;11.63;91.82;101214.34;5035636;28;19929;-63
2021/05/18 05:31:46;;;;;;;;;;;12.10;99.90;;;11.67;91.70;101209.97;5035335;28;20488;-62
2021/05/18 05:34:13;;;;;;;;;;;12.10;99.90;;;11.76;91.61;101215.59;5035838;28;20327;-62
2021/05/18 05:36:40;;;;;;;;;;;12.20;99.90;;;11.81;90.72;101220.94;5034279;28;19954;-63
2021/05/18 05:39:11;;;;;;;;;;;12.30;99.90;;;11.87;90.20;101212.47;5035505;28;19926;-63
2021/05/18 05:41:39;;;;;;;;;;;12.30;99.90;;;12.31;88.82;101206.00;5035109;28;19929;-63
2021/05/18 05:44:07;;;;;;;;;;;12.60;99.90;;;13.06;85.02;101202.13;5035458;28;19929;-63
2021/05/18 05:46:34;;;;;;;;;;;13.60;99.90;;;13.57;81.40;101199.34;5034168;28;19971;-63
2021/05/18 05:49:02;;;;;;;;;;;14.30;99.90;;;14.56;77.97;101202.19;5035210;28;19925;-63
2021/05/18 05:51:29;;;;;;;;;;;15.30;99.90;;;15.41;73.07;101195.75;5035018;28;20341;-63
2021/05/18 05:53:59;;;;;;;;;;;15.30;99.90;;;16.59;68.94;101203.09;5035068;28;19929;-63
2021/05/18 05:56:28;;;;;;;;;;;;;;;17.90;63.08;101199.44;5034003;28;19929;-63
2021/05/18 05:58:55;;;;;;;;;;;17.60;99.90;;;18.60;60.02;101206.13;5034905;28;19925;-63
2021/05/18 06:01:22;;;;;;;;;;;19.10;99.90;;;18.91;57.74;101208.41;5033623;28;19932;-63
2021/05/18 06:03:50;;;;;;;;;;;19.30;99.90;;;19.09;56.61;101207.94;5034919;28;19932;-63
2021/05/18 06:06:18;;;;;;;;;;;;;;;19.40;55.83;101212.97;5034140;28;19929;-62
2021/05/18 06:08:46;;;;;;;;;;;;;;;20.11;53.89;101207.91;5034738;28;19929;-63
2021/05/18 06:11:16;;;;;;;;;;;21.60;99.90;;;21.31;50.87;101216.16;5034654;28;20382;-63
2021/05/18 06:13:54;;;;;;;;;;;21.90;99.90;;;22.32;48.42;101213.59;5034742;28;19925;-63
2021/05/18 06:47:10;;;;;;;;;;;27.20;99.90;;;26.09;38.77;101224.13;5011053;28;20485;-63
2021/05/18 06:49:40;;;;;;;;;;;27.60;99.90;;;25.13;40.70;101227.19;5025122;28;19925;-63
2021/05/18 06:52:07;;;;;;;;;;;27.50;99.90;;;24.22;43.03;101238.59;5034084;28;20370;-64
2021/05/18 06:54:34;;;;;;;;;;;27.00;99.90;;;23.61;45.93;101243.44;5033909;28;19925;-63
2021/05/18 06:57:04;;;;;;;;;;;26.60;99.90;;;22.98;46.80;101237.50;5033162;28;19932;-63
2021/05/18 07:02:17;;;;;;;;;;;25.30;99.90;;;21.02;52.23;101233.81;5033937;28;19932;-63
2021/05/18 07:04:46;;;;;;;;;;;23.90;99.90;;;20.73;52.39;101247.09;5033568;28;19930;-65
2021/05/18 07:07:19;;;;;;;;;;;;;;;20.54;54.22;101245.75;5032629;28;20458;-63
2021/05/18 07:09:46;;;;;;;;;;;22.70;99.90;;;20.31;55.47;101238.31;5033682;28;19987;-63
2021/05/18 07:12:14;;;;;;;;;;;22.10;99.90;;;20.63;56.07;101248.38;5033476;28;19940;-64
2021/05/18 07:14:41;;;;;;;;;;;21.80;99.90;;;20.90;54.84;101258.59;5033499;28;19932;-62
2021/05/18 07:17:10;;;;;;;;;;;21.80;99.90;;;21.04;53.61;101260.94;5032483;28;20363;-63
2021/05/18 07:19:38;;;;;;;;;;;21.60;99.90;;;21.11;53.72;101267.50;5033247;28;19986;-62
2021/05/18 07:22:07;;;;;;;;;;;21.60;99.90;;;21.13;54.18;101272.63;5033367;28;19925;-63
2021/05/18 07:24:34;;;;;;;;;;;21.50;99.90;;;21.04;53.78;101270.00;5033506;28;20027;-64
2021/05/18 07:27:03;;;;;;;;;;;21.40;99.90;;;20.83;53.68;101277.63;5032371;28;19952;-64
2021/05/18 07:29:30;;;;;;;;;;;21.20;99.90;;;20.76;55.38;101282.13;5033327;28;19925;-64
2021/05/18 07:31:57;;;;;;;;;;;21.10;99.90;;;20.90;55.58;101282.53;5033010;28;19925;-64
2021/05/18 07:34:25;;;;;;;;;;;21.20;99.90;;;20.91;55.68;101276.69;5033110;28;19932;-64
2021/05/18 07:36:53;;;;;;;;;;;21.30;99.90;;;21.00;55.49;101276.56;5032139;28;19936;-64
2021/05/18 07:39:20;;;;;;;;;;;21.30;99.90;;;21.08;55.49;101270.94;5033229;28;19947;-62
2021/05/18 07:41:47;;;;;;;;;;;21.40;99.90;;;21.13;55.33;101280.88;5032909;28;19925;-64
2021/05/18 07:44:14;;;;;;;;;;;21.60;99.90;;;21.37;54.17;101285.50;5033022;28;19932;-64
2021/05/18 07:46:43;;;;;;;;;;;21.60;99.90;;;21.49;54.97;101280.72;5032011;28;19932;-64
2021/05/18 07:49:23;;;;;;;;;;;21.70;99.90;;;21.60;54.47;101286.50;5032939;28;20032;-64
2021/05/18 08:00:19;;;;;;;;;;;;;;;21.84;53.46;101305.63;5032686;28;19990;-64
2021/05/18 08:05:32;;;;;;;;;;;22.20;99.90;;;22.12;54.95;101276.09;5032456;28;19932;-64
2021/05/18 08:07:59;;;;;;;;;;;22.30;99.90;;;22.15;53.65;101286.41;5031743;28;19929;-65
2021/05/18 08:10:34;;;;;;;;;;;22.50;99.90;;;22.34;54.21;101293.94;5032453;28;19926;-65
2021/05/18 08:13:02;;;;;;;;;;;22.50;99.90;;;22.41;53.99;101294.09;5033009;28;19932;-64
2021/05/18 08:15:38;;;;;;;;;;;22.70;99.90;;;22.55;54.55;101285.38;5032357;28;19925;-64
2021/05/18 08:18:11;;;;;;;;;;;22.80;99.90;;;22.67;54.24;101286.09;5031749;28;19925;-64
2021/05/18 08:21:18;;;;;;;;;;;22.90;99.90;;;22.68;53.70;101295.13;5032214;28;19929;-64
2021/05/18 10:35:59;;;;;;;;;;;23.50;99.90;;;23.00;59.46;101315.94;5034054;28;20366;-64
2021/05/18 10:38:28;;;;;;;;;;;23.50;99.90;;;22.98;61.89;101328.50;5034345;28;19971;-64
2021/05/18 10:41:10;;;;;;;;;;;23.50;99.90;;;23.10;61.03;101320.88;5033496;28;20016;-64
2021/05/18 10:43:39;;;;;;;;;;;23.50;99.90;;;23.34;59.57;101322.56;5034234;28;20297;-64
2021/05/18 10:46:27;;;;;;;;;;;23.80;99.90;;;23.41;60.13;101319.19;5033454;28;20366;-64
2021/05/18 10:49:01;;;;;;;;;;;23.80;99.90;;;23.43;58.40;101319.63;5033604;28;19933;-64
2021/05/18 10:51:48;;;;;;;;;;;23.90;99.90;;;23.30;59.54;101327.22;5033483;28;19925;-64
2021/05/18 10:54:22;;;;;;;;;;;23.80;99.90;;;23.14;59.80;101334.75;5034026;28;19933;-65
2021/05/18 10:57:01;;;;;;;;;;;23.70;99.90;;;23.17;60.24;101325.75;5033378;28;19929;-65
2021/05/18 10:59:29;;;;;;;;;;;23.70;99.90;;;23.25;60.09;101322.78;5034030;28;19925;-65
2021/05/18 11:01:59;;;;;;;;;;;23.80;99.90;;;23.12;61.18;101334.31;5033410;28;20390;-65
2021/05/18 11:04:26;;;;;;;;;;;23.60;99.90;;;23.17;61.16;101320.22;5033715;28;19979;-62
2021/05/18 11:06:55;;;;;;;;;;;23.70;99.90;;;23.09;60.14;101327.56;5032995;28;19933;-64
2021/05/18 11:09:23;;;;;;;;;;;23.60;99.90;;;22.98;60.36;101320.22;5033696;28;19979;-64
2021/05/18 11:11:58;;;;;;;;;;;23.50;99.90;;;22.68;60.76;101326.25;5033243;28;19925;-63
2021/05/18 11:14:51;;;;;;;;;;;23.30;99.90;;;22.71;62.45;101319.22;5033692;28;20329;-64
2021/05/18 11:17:25;;;;;;;;;;;23.20;99.90;;;22.72;62.70;101324.38;5027137;28;19926;-62
2021/05/18 11:20:00;;;;;;;;;;;23.20;99.90;;;22.68;62.92;101319.94;5033342;28;19968;-64
2021/05/18 11:25:13;;;;;;;;;;;23.20;99.90;;;22.78;63.25;101328.47;5033241;28;19932;-64
2021/05/18 11:27:40;;;;;;;;;;;23.30;99.90;;;22.93;63.76;101309.47;5032886;28;19972;-63
2021/05/18 11:30:10;;;;;;;;;;;23.40;99.90;;;23.04;61.83;101316.81;5033274;28;19948;-65
2021/05/18 11:32:37;;;;;;;;;;;23.50;99.90;;;23.13;62.01;101308.34;5032957;28;19936;-65
2021/05/18 11:35:08;;;;;;;;;;;23.60;99.90;;;22.87;62.25;101311.72;5033030;28;19955;-64
2021/05/18 11:37:35;;;;;;;;;;;23.50;99.90;;;22.81;62.66;101313.16;5032595;28;19929;-64
2021/05/18 11:40:13;;;;;;;;;;;23.30;99.90;;;22.77;63.90;101307.56;5032816;28;19925;-64
2021/05/18 11:42:41;;;;;;;;;;;23.30;99.90;;;22.88;63.22;101313.31;5032713;28;19932;-64
2021/05/18 11:45:14;;;;;;;;;;;23.40;99.90;;;22.84;62.86;101309.69;5033009;28;19928;-64
2021/05/18 11:47:42;;;;;;;;;;;23.40;99.90;;;22.75;62.62;101298.06;5032490;28;20027;-64
2021/05/18 11:50:24;;;;;;;;;;;23.30;99.90;;;22.72;62.75;101302.34;5032879;28;20497;-64
2021/05/18 11:52:52;;;;;;;;;;;23.30;99.90;;;22.70;63.01;101301.91;5032567;28;19948;-64
2021/05/18 11:55:37;;;;;;;;;;;23.30;99.90;;;22.74;63.76;101296.44;5032645;28;19925;-64
2021/05/18 11:58:05;;;;;;;;;;;23.20;99.90;;;22.80;62.31;101287.53;5032433;28;19994;-64
2021/05/18 12:00:34;;;;;;;;;;;23.30;99.90;;;22.81;61.86;101283.63;5031729;28;19936;-65
2021/05/18 12:03:06;;;;;;;;;;;23.30;99.90;;;22.59;61.12;101295.31;5032386;28;20024;-64
2021/05/18 12:05:35;;;;;;;;;;;23.10;99.90;;;22.43;63.09;101291.81;5032389;28;19933;-64
2021/05/18 12:08:02;;;;;;;;;;;23.00;99.90;;;22.59;62.71;101295.31;5032109;28;20283;-64
2021/05/18 12:10:31;;;;;;;;;;;23.10;99.90;;;22.52;62.36;101289.66;5032431;28;19925;-64
2021/05/18 12:12:59;;;;;;;;;;;23.00;99.90;;;22.43;62.91;101288.25;5032400;28;19932;-64
2021/05/18 12:15:26;;;;;;;;;;;22.90;99.90;;;22.32;61.86;101291.53;5032378;28;19991;-64
2021/05/18 12:17:56;;;;;;;;;;;22.80;99.90;;;22.24;62.71;101288.97;5032087;28;19936;-64
2021/05/18 12:20:24;;;;;;;;;;;22.70;99.90;;;22.39;62.92;101282.63;5032349;28;20318;-64
2021/05/18 12:22:52;;;;;;;;;;;22.80;99.90;;;22.42;63.13;101284.69;5032356;28;20389;-64
2021/05/18 12:25:30;;;;;;;;;;;22.90;99.90;;;22.46;63.05;101290.28;5032200;28;20036;-64
2021/05/18 12:28:06;;;;;;;;;;;22.90;99.90;;;22.67;63.28;101288.03;5031533;28;20375;-64
2021/05/18 12:30:38;;;;;;;;;;;23.10;99.90;;;22.64;62.01;101284.03;5032123;28;19933;-64
2021/05/18 12:33:06;;;;;;;;;;;23.10;99.90;;;22.41;61.66;101280.31;5032260;28;19979;-65
2021/05/18 12:35:34;;;;;;;;;;;22.90;99.90;;;22.33;62.72;101275.81;5032081;28;19933;-64
2021/05/18 12:38:13;;;;;;;;;;;22.80;99.90;;;22.13;61.80;101280.44;5031792;28;19925;-64
2021/05/18 12:40:43;;;;;;;;;;;22.70;99.90;;;22.05;63.41;101278.66;5031964;28;19925;-64
2021/05/18 12:43:12;;;;;;;;;;;22.60;99.90;;;22.09;63.62;101279.56;5032079;28;19925;-64
2021/05/18 12:45:43;;;;;;;;;;;22.60;99.90;;;22.23;62.61;101282.66;5032003;28;19929;-64
2021/05/18 12:48:12;;;;;;;;;;;22.70;99.90;;;22.27;61.62;101271.72;5031890;28;19931;-65
2021/05/18 12:50:46;;;;;;;;;;;22.70;99.90;;;22.25;61.78;101274.03;5031803;28;20386;-63
2021/05/18 12:53:25;;;;;;;;;;;22.70;99.90;;;22.22;62.12;101267.28;5031897;28;19929;-63
2021/05/18 12:55:52;;;;;;;;;;;22.70;99.90;;;22.28;62.00;101268.59;5031717;28;19936;-64
2021/05/18 12:58:27;;;;;;;;;;;22.80;99.90;;;22.53;61.36;101266.41;5031900;28;19948;-65
2021/05/18 13:01:08;;;;;;;;;;;22.90;99.90;;;22.43;60.75;101268.94;5031780;28;19929;-64
2021/05/18 13:03:37;;;;;;;;;;;22.90;99.90;;;22.52;61.76;101266.78;5031887;28;20437;-64
2021/05/18 13:06:05;;;;;;;;;;;23.00;99.90;;;22.69;61.30;101260.91;5031293;28;19925;-64
2021/05/18 13:08:34;;;;;;;;;;;23.10;99.90;;;22.89;61.56;101262.50;5031925;28;19925;-64
2021/05/18 13:11:13;;;;;;;;;;;23.30;99.90;;;23.17;60.63;101254.00;5032953;28;19928;-64
2021/05/18 13:13:49;;;;;;;;;;;23.60;99.90;;;22.91;59.93;101257.44;5035814;28;19925;-64
2021/05/18 13:16:19;;;;;;;;;;;23.50;99.90;;;22.94;61.00;101258.69;5035085;28;19991;-64
2021/05/18 13:18:55;;;;;;;;;;;23.50;99.90;;;22.71;61.18;101253.84;5035911;28;19979;-64
2021/05/18 13:21:24;;;;;;;;;;;23.30;99.90;;;22.67;63.31;101254.97;5033717;28;20334;-64
2021/05/18 13:24:21;;;;;;;;;;;23.20;99.90;;;22.57;63.47;101263.75;5035580;28;20000;-64
2021/05/18 13:26:47;;;;;;;;;;;23.10;99.90;;;22.54;63.89;101256.19;5034896;28;19925;-64
2021/05/18 13:29:17;;;;;;;;;;;23.10;99.90;;;22.41;64.32;101257.47;5035721;28;19979;-64
2021/05/18 13:31:46;;;;;;;;;;;23.00;99.90;;;22.56;63.61;101251.13;5035109;28;19968;-65
2021/05/18 13:34:14;;;;;;;;;;;23.10;99.90;;;22.37;64.20;101251.09;5035335;28;19933;-64
2021/05/18 13:36:42;;;;;;;;;;;22.90;99.90;;;22.31;63.56;101253.34;5034759;28;19936;-64
2021/05/18 13:39:11;;;;;;;;;;;22.80;99.90;;;22.35;63.20;101251.44;5035504;28;19925;-64
2021/05/18 13:41:39;;;;;;;;;;;22.80;99.90;;;22.38;64.55;101256.22;5034772;28;20327;-64
2021/05/18 13:44:08;;;;;;;;;;;22.90;99.90;;;22.39;62.66;101252.34;5035314;28;19925;-64
2021/05/18 13:46:36;;;;;;;;;;;22.90;99.90;;;22.36;63.18;101253.03;5034538;28;20387;-64
2021/05/18 13:49:04;;;;;;;;;;;22.90;99.90;;;22.45;62.17;101253.66;5035183;28;19932;-64
2021/05/18 13:51:32;;;;;;;;;;;23.00;99.90;;;22.59;63.30;101251.19;5034717;28;19967;-65
2021/05/18 13:54:00;;;;;;;;;;;23.10;99.90;;;22.47;62.55;101248.56;5035003;28;20287;-64
2021/05/18 13:56:29;;;;;;;;;;;23.00;99.90;;;22.34;63.73;101245.13;5034394;28;20280;-64
2021/05/18 13:58:56;;;;;;;;;;;22.90;99.90;;;22.64;63.24;101244.63;5035231;28;20315;-64
2021/05/18 14:01:24;;;;;;;;;;;23.10;99.90;;;22.69;61.79;101242.41;5034594;28;20294;-64
2021/05/18 14:03:51;;;;;;;;;;;23.20;99.90;;;22.68;61.03;101251.81;5034853;28;19925;-65
2021/05/18 14:06:20;;;;;;;;;;;23.20;99.90;;;22.52;61.12;101233.72;5034127;28;19994;-64
2021/05/18 14:08:48;;;;;;;;;;;23.10;99.90;;;22.65;62.09;101237.97;5034945;28;19948;-62
2021/05/18 14:11:17;;;;;;;;;;;23.10;99.90;;;22.61;61.57;101245.34;5034295;28;19933;-63
2021/05/18 14:13:49;;;;;;;;;;;23.10;99.90;;;22.64;60.52;101236.34;5034842;28;19932;-62
2021/05/18 14:16:18;;;;;;;;;;;23.10;99.90;;;22.64;61.24;101241.88;5033868;28;19936;-63
2021/05/18 14:18:47;;;;;;;;;;;23.10;99.90;;;22.62;62.15;101239.44;5034703;28;19929;-63
2021/05/18 14:21:14;;;;;;;;;;;23.10;99.90;;;22.66;62.78;101228.53;5034415;28;19935;-63
2021/05/18 14:23:46;;;;;;;;;;;23.20;99.90;;;22.85;63.29;101234.88;5032807;28;20247;-62
2021/05/18 14:26:15;;;;;;;;;;;23.40;99.90;;;22.98;63.13;101235.50;5033783;28;19929;-65
2021/05/18 14:28:43;;;;;;;;;;;23.50;99.90;;;23.05;61.87;101226.59;5034443;28;20405;-65
2021/05/18 14:31:12;;;;;;;;;;;23.60;99.90;;;22.83;60.78;101234.41;5033986;28;19925;-64
2021/05/18 14:33:40;;;;;;;;;;;23.50;99.90;;;22.75;61.17;101242.91;5034164;28;19928;-64
2021/05/18 14:36:09;;;;;;;;;;;23.30;99.90;;;22.79;62.75;101233.56;5033809;28;19929;-64
2021/05/18 14:38:39;;;;;;;;;;;23.30;99.90;;;22.92;63.02;101236.19;5034242;28;20293;-64
2021/05/18 14:46:48;;;;;;;;;;;23.80;99.90;;;23.32;62.25;101237.38;5033559;28;19929;-64
2021/05/18 14:54:55;;;;;;;;;;;23.90;99.90;;;23.39;62.14;101226.50;5033834;28;20068;-64
2021/05/18 14:57:22;;;;;;;;;;;24.00;99.90;;;23.31;61.73;101238.56;5033400;28;19925;-64
2021/05/18 14:59:50;;;;;;;;;;;23.90;99.90;;;23.30;61.76;101242.47;5033931;28;19979;-64
2021/05/18 15:02:18;;;;;;;;;;;23.90;99.90;;;23.32;61.75;101237.38;5033679;28;19960;-64
2021/05/18 15:04:45;;;;;;;;;;;24.00;99.90;;;23.24;60.83;101237.59;5033673;28;19932;-64
2021/05/18 15:07:13;;;;;;;;;;;23.90;99.90;;;23.02;60.86;101232.81;5033110;28;19937;-65
2021/05/18 15:09:40;;;;;;;;;;;23.60;99.90;;;22.60;62.39;101225.25;5033615;28;19925;-65
2021/05/18 15:12:08;;;;;;;;;;;23.30;99.90;;;22.44;63.48;101226.44;5033389;28;19925;-65
2021/05/18 15:14:35;;;;;;;;;;;23.10;99.90;;;22.52;64.16;101229.00;5033330;28;19982;-64
2021/05/18 15:17:04;;;;;;;;;;;23.10;99.90;;;22.54;63.38;101221.19;5032824;28;20436;-64
2021/05/18 15:19:32;;;;;;;;;;;23.10;99.90;;;22.64;63.26;101222.56;5033595;28;19925;-64
2021/05/18 15:21:59;;;;;;;;;;;23.20;99.90;;;22.77;62.82;101224.03;5033102;28;19971;-63
2021/05/18 15:24:27;;;;;;;;;;;23.30;99.90;;;22.78;64.13;101220.13;5033362;28;19932;-64
2021/05/18 15:26:54;;;;;;;;;;;23.30;99.90;;;22.75;63.96;101213.38;5032538;28;19929;-65
2021/05/18 15:29:24;;;;;;;;;;;23.30;99.90;;;22.72;64.06;101216.06;5033383;28;19925;-63
2021/05/18 15:31:54;;;;;;;;;;;23.30;99.90;;;22.77;64.34;101229.56;5033001;28;19925;-64
2021/05/18 15:34:22;;;;;;;;;;;23.30;99.90;;;22.79;64.83;101218.97;5033086;28;19940;-65
2021/05/18 15:36:50;;;;;;;;;;;23.40;99.90;;;22.77;64.38;101218.53;5032540;28;19932;-65
2021/05/18 15:39:17;;;;;;;;;;;23.30;99.90;;;22.79;64.50;101218.97;5033063;28;19929;-64
2021/05/18 15:41:45;;;;;;;;;;;23.40;99.90;;;22.80;63.89;101218.59;5032591;28;20374;-64
2021/05/18 15:44:12;;;;;;;;;;;23.40;99.90;;;22.91;64.25;101221.59;5033067;28;20306;-64
2021/05/18 15:46:39;;;;;;;;;;;23.40;99.90;;;22.90;64.75;101227.47;5032163;28;19929;-65